sensor_id;sensor_type;location;lat;lon;timestamp;temperature;humidity
18171;DHT22;9210;48.358;10.902;2023-02-15T10:51:32;4.90;1.00
18171;DHT22;9210;48.358;10.902;2023-02-15T11:29:58;3.40;99.90
18171;DHT22;9210;48.358;10.902;2023-02-15T11:32:30;5.20;99.90
18171;DHT22;9210;48.358;10.902;2023-02-15T12:05:09;5.20;99.90
18171;DHT22;9210;48.358;10.902;2023-02-15T12:10:17;4.30;1.00
18171;DHT22;9210;48.358;10.902;2023-02-15T12:13:09;4.20;1.00
18171;DHT22;9210;48.358;10.902;2023-02-15T12:15:42;4.20;1.00
18171;DHT22;9210;48.358;10.902;2023-02-15T12:18:19;4.40;1.00
18171;DHT22;9210;48.358;10.902;2023-02-15T12:20:49;4.50;1.00
18171;DHT22;9210;48.358;10.902;2023-02-15T12:23:19;4.60;1.00
18171;DHT22;9210;48.358;10.902;2023-02-15T12:25:51;4.40;1.00
18171;DHT22;9210;48.358;10.902;2023-02-15T12:28:25;4.40;1.00
18171;DHT22;9210;48.358;10.902;2023-02-15T12:30:55;4.50;1.00
18171;DHT22;9210;48.358;10.902;2023-02-15T12:33:28;4.50;1.00
18171;DHT22;9210;48.358;10.902;2023-02-15T12:36:00;4.60;1.00
18171;DHT22;9210;48.358;10.902;2023-02-15T12:38:31;4.60;1.00
18171;DHT22;9210;48.358;10.902;2023-02-15T12:41:03;4.80;99.90
18171;DHT22;9210;48.358;10.902;2023-02-15T12:43:33;4.70;1.00
18171;DHT22;9210;48.358;10.902;2023-02-15T12:46:21;4.60;99.90
18171;DHT22;9210;48.358;10.902;2023-02-15T12:49:06;5.00;1.00
18171;DHT22;9210;48.358;10.902;2023-02-15T12:51:46;4.80;1.00
18171;DHT22;9210;48.358;10.902;2023-02-15T12:54:43;5.10;1.00
18171;DHT22;9210;48.358;10.902;2023-02-15T12:57:29;5.00;1.00
18171;DHT22;9210;48.358;10.902;2023-02-15T12:59:59;5.20;1.00
18171;DHT22;9210;48.358;10.902;2023-02-15T13:02:31;5.40;99.90
18171;DHT22;9210;48.358;10.902;2023-02-15T15:37:30;6.60;1.00
18171;DHT22;9210;48.358;10.902;2023-02-15T16:29:36;6.60;1.00
18171;DHT22;9210;48.358;10.902;2023-02-15T16:32:05;5.40;1.00
18171;DHT22;9210;48.358;10.902;2023-02-15T16:34:34;5.30;1.00
18171;DHT22;9210;48.358;10.902;2023-02-15T16:37:18;5.30;99.90
18171;DHT22;9210;48.358;10.902;2023-02-15T16:39:46;5.20;99.90
18171;DHT22;9210;48.358;10.902;2023-02-15T16:42:16;5.00;1.00
18171;DHT22;9210;48.358;10.902;2023-02-15T16:44:45;4.90;99.90
18171;DHT22;9210;48.358;10.902;2023-02-15T16:47:19;5.10;99.90
18171;DHT22;9210;48.358;10.902;2023-02-15T16:49:49;5.00;99.90
18171;DHT22;9210;48.358;10.902;2023-02-15T16:52:22;4.80;1.00
18171;DHT22;9210;48.358;10.902;2023-02-15T16:54:54;4.90;99.90
18171;DHT22;9210;48.358;10.902;2023-02-15T16:57:26;4.80;99.90
18171;DHT22;9210;48.358;10.902;2023-02-15T16:59:57;4.70;1.00
18171;DHT22;9210;48.358;10.902;2023-02-15T17:02:31;4.70;99.90
18171;DHT22;9210;48.358;10.902;2023-02-15T17:05:20;4.60;99.90
18171;DHT22;9210;48.358;10.902;2023-02-15T17:18:04;4.50;99.90
18171;DHT22;9210;48.358;10.902;2023-02-15T17:20:33;4.30;99.90
18171;DHT22;9210;48.358;10.902;2023-02-15T17:23:05;3.90;99.90
18171;DHT22;9210;48.358;10.902;2023-02-15T17:25:37;3.80;99.90
18171;DHT22;9210;48.358;10.902;2023-02-15T19:52:16;3.80;99.90
18171;DHT22;9210;48.358;10.902;2023-02-15T19:54:45;1.10;1.00
18171;DHT22;9210;48.358;10.902;2023-02-15T19:57:15;0.90;1.00
18171;DHT22;9210;48.358;10.902;2023-02-15T19:59:43;0.80;1.00
18171;DHT22;9210;48.358;10.902;2023-02-15T20:02:12;0.70;1.00
18171;DHT22;9210;48.358;10.902;2023-02-15T20:04:42;0.50;1.00
18171;DHT22;9210;48.358;10.902;2023-02-15T20:07:17;0.10;1.00
18171;DHT22;9210;48.358;10.902;2023-02-15T20:09:48;0.30;1.00
18171;DHT22;9210;48.358;10.902;2023-02-15T20:12:22;0.50;1.00
18171;DHT22;9210;48.358;10.902;2023-02-15T20:14:51;0.20;1.00
18171;DHT22;9210;48.358;10.902;2023-02-15T20:17:19;0.40;1.00
18171;DHT22;9210;48.358;10.902;2023-02-15T20:19:49;0.50;1.00
18171;DHT22;9210;48.358;10.902;2023-02-15T20:22:21;0.40;1.00
18171;DHT22;9210;48.358;10.902;2023-02-15T20:24:50;0.30;1.00
18171;DHT22;9210;48.358;10.902;2023-02-15T20:27:21;0.10;1.00
18171;DHT22;9210;48.358;10.902;2023-02-15T20:49:45;0.40;1.00
18171;DHT22;9210;48.358;10.902;2023-02-15T20:52:18;0.20;1.00
18171;DHT22;9210;48.358;10.902;2023-02-15T20:54:47;0.00;1.00
18171;DHT22;9210;48.358;10.902;2023-02-15T20:57:15;-0.20;1.00
18171;DHT22;9210;48.358;10.902;2023-02-15T20:59:44;-0.10;1.00
18171;DHT22;9210;48.358;10.902;2023-02-15T21:02:16;0.00;1.00
18171;DHT22;9210;48.358;10.902;2023-02-15T21:04:45;0.00;1.00
18171;DHT22;9210;48.358;10.902;2023-02-15T21:07:14;-0.10;1.00
18171;DHT22;9210;48.358;10.902;2023-02-15T21:09:44;0.00;1.00
18171;DHT22;9210;48.358;10.902;2023-02-15T21:12:14;-0.20;1.00
18171;DHT22;9210;48.358;10.902;2023-02-15T21:14:44;0.10;1.00
18171;DHT22;9210;48.358;10.902;2023-02-15T21:17:14;0.30;1.00
18171;DHT22;9210;48.358;10.902;2023-02-15T21:19:43;0.00;1.00
18171;DHT22;9210;48.358;10.902;2023-02-15T21:22:12;-0.20;1.00
18171;DHT22;9210;48.358;10.902;2023-02-15T21:24:45;0.20;1.00
18171;DHT22;9210;48.358;10.902;2023-02-15T21:27:16;0.00;1.00
18171;DHT22;9210;48.358;10.902;2023-02-15T21:29:44;0.10;1.00
18171;DHT22;9210;48.358;10.902;2023-02-15T21:32:12;0.00;1.00
18171;DHT22;9210;48.358;10.902;2023-02-15T21:34:40;0.00;1.00
18171;DHT22;9210;48.358;10.902;2023-02-15T21:37:25;-0.10;1.00
18171;DHT22;9210;48.358;10.902;2023-02-15T21:39:55;-0.40;1.00
18171;DHT22;9210;48.358;10.902;2023-02-15T22:05:44;-0.20;1.00
18171;DHT22;9210;48.358;10.902;2023-02-15T22:08:13;0.00;1.00
18171;DHT22;9210;48.358;10.902;2023-02-15T22:10:42;-0.30;1.00
18171;DHT22;9210;48.358;10.902;2023-02-15T22:13:14;-0.10;1.00
18171;DHT22;9210;48.358;10.902;2023-02-15T22:28:15;-0.40;1.00
18171;DHT22;9210;48.358;10.902;2023-02-15T22:30:44;-0.40;1.00
18171;DHT22;9210;48.358;10.902;2023-02-15T22:33:22;-0.70;1.00
18171;DHT22;9210;48.358;10.902;2023-02-15T22:35:51;-0.70;1.00
18171;DHT22;9210;48.358;10.902;2023-02-15T22:53:27;-0.70;1.00
18171;DHT22;9210;48.358;10.902;2023-02-15T22:55:59;-0.60;1.00
18171;DHT22;9210;48.358;10.902;2023-02-15T22:58:31;-0.60;1.00
18171;DHT22;9210;48.358;10.902;2023-02-15T23:01:00;-0.30;1.00
18171;DHT22;9210;48.358;10.902;2023-02-15T23:03:30;-0.30;1.00
18171;DHT22;9210;48.358;10.902;2023-02-15T23:05:59;-0.70;1.00
18171;DHT22;9210;48.358;10.902;2023-02-15T23:08:27;-0.60;1.00
18171;DHT22;9210;48.358;10.902;2023-02-15T23:10:56;-0.80;1.00
18171;DHT22;9210;48.358;10.902;2023-02-15T23:13:26;-0.40;1.00
18171;DHT22;9210;48.358;10.902;2023-02-15T23:15:59;-0.50;1.00
18171;DHT22;9210;48.358;10.902;2023-02-15T23:18:30;-0.50;1.00
18171;DHT22;9210;48.358;10.902;2023-02-15T23:21:00;-0.20;1.00
18171;DHT22;9210;48.358;10.902;2023-02-15T23:23:32;-0.40;1.00
18171;DHT22;9210;48.358;10.902;2023-02-15T23:26:01;-0.40;1.00
18171;DHT22;9210;48.358;10.902;2023-02-15T23:28:34;-0.40;1.00
18171;DHT22;9210;48.358;10.902;2023-02-15T23:31:12;-0.60;1.00
18171;DHT22;9210;48.358;10.902;2023-02-15T23:33:42;-0.40;1.00
18171;DHT22;9210;48.358;10.902;2023-02-15T23:36:24;-0.60;1.00
18171;DHT22;9210;48.358;10.902;2023-02-15T23:38:52;-0.20;1.00
18171;DHT22;9210;48.358;10.902;2023-02-15T23:41:22;-0.10;1.00
18171;DHT22;9210;48.358;10.902;2023-02-15T23:43:53;-0.20;1.00
18171;DHT22;9210;48.358;10.902;2023-02-15T23:46:26;-0.20;1.00
18171;DHT22;9210;48.358;10.902;2023-02-15T23:48:56;-0.20;1.00
18171;DHT22;9210;48.358;10.902;2023-02-15T23:51:28;-0.10;1.00
18171;DHT22;9210;48.358;10.902;2023-02-15T23:53:57;-0.50;1.00
18171;DHT22;9210;48.358;10.902;2023-02-15T23:56:25;-0.20;1.00
18171;DHT22;9210;48.358;10.902;2023-02-15T23:58:54;-0.20;1.00
